Time;durP1;ratioP1;P1;durP2;ratioP2;P2;SDS_P1;SDS_P2;PMS_P1;PMS_P2;Temp;Humidity;BMP_temperature;BMP_pressure;BME280_temperature;BME280_humidity;BME280_pressure;Samples;Min_cycle;Max_cycle;Signal;HPM_P1;HPM_P2
2022/03/30 18:00:10;;;;;;;1.65;1.55;;;;;;;16.73;100.00;100351.63;2558746;54;45004;-65
2022/03/30 18:02:40;;;;;;;0.00;0.00;;;;;;;16.61;100.00;100355.34;2618816;47;20139;-64
2022/03/30 18:05:12;;;;;;;0.98;0.95;;;;;;;16.58;100.00;100358.22;2619705;54;20149;-65
2022/03/30 18:07:42;;;;;;;7.57;1.45;;;;;;;16.44;100.00;100353.41;2619350;54;20157;-65
2022/03/30 18:10:15;;;;;;;0.15;0.15;;;;;;;16.28;100.00;100365.25;2620303;39;20581;-64
2022/03/30 18:12:47;;;;;;;0.10;0.10;;;;;;;16.32;100.00;100371.88;2619100;54;20142;-64
2022/03/30 18:15:21;;;;;;;0.60;0.60;;;;;;;16.28;100.00;100369.66;2618277;54;20151;-64
2022/03/30 18:17:51;;;;;;;3.13;1.02;;;;;;;16.19;100.00;100378.31;2618220;47;20137;-64
2022/03/30 18:20:21;;;;;;;0.70;0.13;;;;;;;16.17;100.00;100375.81;2618413;54;20144;-64
2022/03/30 18:22:52;;;;;;;0.77;0.77;;;;;;;16.12;100.00;100377.22;2618939;54;20277;-65
2022/03/30 18:25:22;;;;;;;2.30;1.63;;;;;;;16.08;100.00;100391.53;2618201;47;20138;-64
2022/03/30 18:27:53;;;;;;;15.18;3.60;;;;;;;15.93;100.00;100381.44;2618707;54;20142;-64
2022/03/30 18:30:26;;;;;;;2.25;1.25;;;;;;;15.91;100.00;100382.53;2619212;47;20241;-65
2022/03/30 18:32:57;;;;;;;3.50;3.00;;;;;;;15.87;100.00;100387.22;2619332;54;20157;-65
2022/03/30 18:35:28;;;;;;;12.18;1.77;;;;;;;15.83;100.00;100383.19;2617953;54;20689;-65
2022/03/30 18:37:59;;;;;;;1.60;1.50;;;;;;;15.82;100.00;100383.31;2618698;54;20157;-65
2022/03/30 18:40:29;;;;;;;0.87;0.87;;;;;;;15.77;100.00;100393.34;2618571;47;20153;-65
2022/03/30 18:42:59;;;;;;;0.65;0.65;;;;;;;15.78;100.00;100381.94;2619223;54;20180;-64
2022/03/30 18:45:33;;;;;;;2.35;2.17;;;;;;;15.65;100.00;100381.34;2619443;54;20677;-65
2022/03/30 18:48:03;;;;;;;1.75;1.65;;;;;;;15.59;100.00;100371.41;2618070;54;20145;-66
2022/03/30 18:50:51;;;;;;;0.17;0.17;;;;;;;15.54;100.00;100366.56;2617762;54;20161;-65
2022/03/30 18:53:22;;;;;;;9.18;1.48;;;;;;;15.49;100.00;100366.09;2617812;47;20724;-65
2022/03/30 18:55:52;;;;;;;3.60;1.02;;;;;;;15.49;100.00;100367.91;2618265;54;20159;-65
2022/03/30 18:58:22;;;;;;;0.85;0.45;;;;;;;15.34;100.00;100368.25;2618119;54;20196;-65
2022/03/30 19:00:56;;;;;;;0.98;0.35;;;;;;;15.34;100.00;100372.66;2618201;54;20685;-65
2022/03/30 19:03:26;;;;;;;4.15;1.70;;;;;;;15.29;100.00;100378.25;2619447;39;20551;-66
2022/03/30 19:05:58;;;;;;;0.38;0.32;;;;;;;15.26;100.00;100386.38;2618991;54;20261;-66
2022/03/30 19:08:30;;;;;;;0.33;0.33;;;;;;;15.03;100.00;100348.28;2618539;54;20156;-66
2022/03/30 19:11:00;;;;;;;0.40;0.40;;;;;;;15.17;100.00;100386.31;2617343;54;20184;-65
2022/03/30 19:13:31;;;;;;;0.43;0.43;;;;;;;15.19;100.00;100395.69;2617203;47;20625;-66
2022/03/30 19:16:04;;;;;;;0.05;0.05;;;;;;;15.16;100.00;100403.81;2617944;47;20233;-66
2022/03/30 19:18:34;;;;;;;1.47;1.07;;;;;;;15.11;100.00;100403.34;2617979;54;20146;-65
2022/03/30 19:21:05;;;;;;;2.08;1.98;;;;;;;15.00;100.00;100406.03;2617939;54;20164;-65
2022/03/30 19:23:46;;;;;;;1.40;1.08;;;;;;;14.95;100.00;100402.97;2618132;54;20145;-66
2022/03/30 19:26:16;;;;;;;1.17;1.10;;;;;;;14.88;100.00;100404.44;2616608;47;20164;-66
2022/03/30 19:28:47;;;;;;;6.28;3.40;;;;;;;14.83;100.00;100409.19;2617614;47;20153;-66
2022/03/30 19:31:20;;;;;;;4.80;3.93;;;;;;;14.84;100.00;100416.09;2618053;54;20188;-67
2022/03/30 19:33:51;;;;;;;9.82;5.97;;;;;;;14.78;100.00;100413.97;2618301;54;20244;-65
2022/03/30 19:36:21;;;;;;;3.67;1.87;;;;;;;14.76;100.00;100410.66;2618933;54;20164;-65
2022/03/30 19:38:52;;;;;;;7.43;3.85;;;;;;;14.78;100.00;100421.81;2618679;54;20155;-65
2022/03/30 19:41:25;;;;;;;2.97;2.05;;;;;;;14.75;100.00;100415.06;2618336;47;20153;-65
2022/03/30 19:43:59;;;;;;;3.03;1.00;;;;;;;14.72;100.00;100414.47;2618200;54;20142;-65
2022/03/30 19:46:32;;;;;;;0.55;0.55;;;;;;;14.72;100.00;100417.09;2618503;54;20705;-65
2022/03/30 19:49:02;;;;;;;3.90;3.60;;;;;;;14.72;100.00;100411.88;2618748;54;20172;-64
2022/03/30 19:51:34;;;;;;;2.73;2.50;;;;;;;14.69;100.00;100410.31;2618790;47;20157;-65
2022/03/30 19:54:04;;;;;;;3.67;2.37;;;;;;;14.70;100.00;100396.31;2618042;39;20584;-66
2022/03/30 19:56:35;;;;;;;6.90;3.38;;;;;;;14.70;100.00;100408.53;2617840;54;20142;-65
2022/03/30 19:59:05;;;;;;;6.05;3.80;;;;;;;14.72;100.00;100401.44;2618197;54;20201;-64
2022/03/30 20:01:38;;;;;;;5.60;3.83;;;;;;;14.69;100.00;100406.88;2618303;54;20150;-65
2022/03/30 20:04:09;;;;;;;5.10;4.60;;;;;;;14.68;100.00;100408.69;2617626;54;20197;-65
2022/03/30 20:06:44;;;;;;;5.03;4.57;;;;;;;14.64;100.00;100409.06;2618724;54;20142;-65
2022/03/30 20:09:15;;;;;;;6.73;4.47;;;;;;;14.64;100.00;100409.06;2618297;39;20556;-65
2022/03/30 20:11:46;;;;;;;5.20;3.63;;;;;;;14.69;100.00;100406.88;2617911;54;20203;-65
2022/03/30 20:14:16;;;;;;;0.77;0.77;;;;;;;14.67;100.00;100420.06;2617002;54;20172;-65
2022/03/30 20:16:50;;;;;;;9.05;3.75;;;;;;;14.62;100.00;100413.56;2616469;54;20153;-64
2022/03/30 20:19:20;;;;;;;6.57;3.30;;;;;;;14.62;100.00;100406.56;2615847;54;20150;-65
2022/03/30 20:21:51;;;;;;;9.30;3.17;;;;;;;14.65;100.00;100402.84;2615252;54;20149;-64
2022/03/30 20:24:22;;;;;;;2.60;2.40;;;;;;;14.70;100.00;100392.88;2617405;54;20172;-65
2022/03/30 20:26:53;;;;;;;0.98;0.98;;;;;;;14.73;100.00;100385.63;2618399;47;20137;-65
2022/03/30 20:29:24;;;;;;;3.93;3.53;;;;;;;14.75;100.00;100390.72;2618269;54;20690;-64
2022/03/30 20:31:57;;;;;;;14.27;6.23;;;;;;;14.79;100.00;100386.91;2619380;54;20144;-65
2022/03/30 20:34:27;;;;;;;5.32;2.42;;;;;;;14.79;100.00;100381.69;2618350;54;20157;-65
2022/03/30 20:36:58;;;;;;;3.03;2.78;;;;;;;14.73;100.00;100382.16;2617897;54;20171;-64
2022/03/30 20:39:28;;;;;;;2.65;1.95;;;;;;;14.76;100.00;100381.94;2619106;54;20146;-63
2022/03/30 20:41:59;;;;;;;6.78;3.17;;;;;;;14.67;100.00;100380.06;2618982;54;20157;-64
2022/03/30 20:44:30;;;;;;;12.27;4.88;;;;;;;14.68;100.00;100390.41;2619714;54;20176;-64
2022/03/30 20:47:03;;;;;;;10.30;4.80;;;;;;;14.66;100.00;100389.69;2620060;54;20154;-65
2022/03/30 20:49:35;;;;;;;5.20;3.67;;;;;;;14.63;100.00;100389.13;2619535;31;20677;-65
2022/03/30 20:52:12;;;;;;;4.80;1.50;;;;;;;14.58;100.00;100388.66;2619746;54;20142;-65
2022/03/30 20:54:43;;;;;;;13.63;6.80;;;;;;;14.49;100.00;100388.44;2620298;54;20742;-65
2022/03/30 20:57:14;;;;;;;9.07;3.40;;;;;;;14.47;100.00;100392.97;2619465;54;20157;-64
2022/03/30 20:59:44;;;;;;;5.95;3.35;;;;;;;14.44;100.00;100387.97;2619380;54;20201;-65
2022/03/30 21:02:17;;;;;;;10.00;7.33;;;;;;;14.42;100.00;100387.28;2619840;54;20681;-64
2022/03/30 21:04:48;;;;;;;6.80;4.53;;;;;;;14.44;100.00;100376.75;2619997;54;20692;-64
2022/03/30 21:07:19;;;;;;;1.70;1.50;;;;;;;14.45;100.00;100370.53;2618989;54;20142;-64
2022/03/30 21:09:49;;;;;;;9.95;1.42;;;;;;;14.45;100.00;100376.59;2619718;47;20134;-64
2022/03/30 21:12:19;;;;;;;3.93;3.60;;;;;;;14.41;100.00;100374.34;2619229;54;20168;-64
2022/03/30 21:14:50;;;;;;;5.23;3.90;;;;;;;14.40;100.00;100357.06;2619664;47;20168;-64
2022/03/30 21:17:22;;;;;;;6.77;4.43;;;;;;;14.41;100.00;100371.75;2619779;47;20165;-64
2022/03/30 21:19:53;;;;;;;6.40;3.27;;;;;;;14.39;100.00;100360.63;2619854;54;20142;-65
2022/03/30 21:22:26;;;;;;;0.60;0.60;;;;;;;14.47;100.00;100361.66;2619831;39;20534;-65
2022/03/30 21:24:56;;;;;;;2.78;2.58;;;;;;;14.44;100.00;100353.25;2619908;54;20145;-64
2022/03/30 21:27:26;;;;;;;2.43;1.43;;;;;;;14.49;100.00;100346.69;2619230;46;20260;-64
2022/03/30 21:29:57;;;;;;;3.30;1.35;;;;;;;14.58;100.00;100354.72;2619748;47;20269;-65
2022/03/30 21:32:29;;;;;;;3.23;3.03;;;;;;;14.63;100.00;100357.78;2619344;54;20157;-64
2022/03/30 21:35:00;;;;;;;6.90;4.55;;;;;;;14.57;100.00;100353.88;2620002;54;20141;-64
2022/03/30 21:37:30;;;;;;;1.30;1.20;;;;;;;14.57;100.00;100348.66;2619051;54;20269;-64
2022/03/30 21:40:01;;;;;;;0.43;0.20;;;;;;;14.58;100.00;100350.31;2619208;54;20771;-64
2022/03/30 21:42:31;;;;;;;0.10;0.10;;;;;;;14.57;100.00;100355.66;2619652;54;20229;-64
2022/03/30 21:45:01;;;;;;;1.23;1.23;;;;;;;14.53;100.00;100345.47;2619304;54;20146;-65
2022/03/30 21:47:34;;;;;;;1.42;1.20;;;;;;;14.41;100.00;100332.59;2619351;54;20165;-64
2022/03/30 21:50:05;;;;;;;1.53;1.43;;;;;;;14.44;100.00;100340.19;2619439;54;20156;-64
2022/03/30 21:52:36;;;;;;;0.75;0.73;;;;;;;14.48;100.00;100344.22;2618828;54;20137;-64
2022/03/30 21:55:07;;;;;;;4.17;1.07;;;;;;;14.55;100.00;100331.47;2619437;54;20141;-65
2022/03/30 21:57:38;;;;;;;1.20;1.08;;;;;;;14.47;100.00;100332.94;2619774;47;20150;-63
2022/03/30 22:00:20;;;;;;;2.72;1.65;;;;;;;14.46;100.00;100328.66;2619386;47;20243;-65
2022/03/30 22:02:55;;;;;;;0.75;0.35;;;;;;;14.38;100.00;100330.25;2619819;46;20221;-65
2022/03/30 22:05:26;;;;;;;0.40;0.23;;;;;;;14.28;100.00;100322.28;2619689;47;20141;-65
2022/03/30 22:07:57;;;;;;;8.37;7.93;;;;;;;14.14;100.00;100322.59;2619536;54;20248;-65
2022/03/30 22:10:28;;;;;;;2.53;1.97;;;;;;;14.04;100.00;100321.69;2619507;54;20153;-65
2022/03/30 22:12:59;;;;;;;2.63;2.20;;;;;;;14.02;100.00;100320.97;2619290;47;20138;-65
2022/03/30 22:15:30;;;;;;;6.97;1.27;;;;;;;13.92;100.00;100322.69;2619949;50;20141;-66
2022/03/30 22:18:03;;;;;;;6.03;2.07;;;;;;;13.85;100.00;100327.53;2620610;31;20650;-65
2022/03/30 22:20:34;;;;;;;0.73;0.73;;;;;;;14.02;100.00;100323.59;2619925;54;20142;-65
2022/03/30 22:23:05;;;;;;;7.57;4.70;;;;;;;14.06;100.00;100323.22;2619128;54;20146;-65
2022/03/30 22:25:35;;;;;;;2.33;0.97;;;;;;;14.15;100.00;100321.66;2619538;54;20145;-65
2022/03/30 22:28:09;;;;;;;1.20;1.10;;;;;;;14.21;100.00;100325.53;2619231;54;20144;-65
2022/03/30 22:30:40;;;;;;;3.92;3.28;;;;;;;14.31;100.00;100319.47;2619524;54;20794;-65
2022/03/30 22:35:56;;;;;;;7.78;5.78;;;;;;;14.48;100.00;100316.31;2619136;51;20161;-65
2022/03/30 22:38:29;;;;;;;16.33;6.10;;;;;;;14.58;100.00;100315.56;2619520;54;20168;-65
2022/03/30 22:41:01;;;;;;;7.73;5.97;;;;;;;14.56;100.00;100307.88;2619756;39;20532;-65
2022/03/30 22:43:33;;;;;;;1.87;1.30;;;;;;;14.59;100.00;100312.81;2619727;54;20148;-65
2022/03/30 22:46:03;;;;;;;1.43;1.33;;;;;;;14.52;100.00;100317.69;2620144;54;20148;-64
2022/03/30 22:48:36;;;;;;;2.83;2.45;;;;;;;14.53;100.00;100318.53;2619118;54;20692;-65
2022/03/30 22:51:06;;;;;;;1.20;1.10;;;;;;;14.63;100.00;100314.22;2619933;47;20669;-65
2022/03/30 22:53:36;;;;;;;8.80;2.10;;;;;;;14.68;100.00;100311.25;2619047;47;20145;-65
2022/03/30 22:56:07;;;;;;;4.87;3.47;;;;;;;14.68;100.00;100312.06;2619312;47;20149;-65
2022/03/30 22:58:37;;;;;;;4.23;3.70;;;;;;;14.67;100.00;100309.56;2619618;47;20205;-65
2022/03/30 23:01:07;;;;;;;4.13;1.63;;;;;;;14.66;100.00;100302.69;2619354;54;20146;-65
2022/03/30 23:03:40;;;;;;;3.93;2.63;;;;;;;14.68;100.00;100303.41;2619209;54;20146;-64
2022/03/30 23:08:53;;;;;;;0.63;0.63;;;;;;;14.75;100.00;100292.31;2619783;54;20152;-65
2022/03/30 23:11:24;;;;;;;0.73;0.40;;;;;;;14.72;100.00;100294.34;2619642;54;20146;-65
2022/03/30 23:13:55;;;;;;;1.17;1.08;;;;;;;14.78;100.00;100286.00;2619146;54;20161;-65
2022/03/30 23:16:25;;;;;;;4.15;2.28;;;;;;;14.83;100.00;100302.13;2619356;54;20660;-64
2022/03/30 23:19:04;;;;;;;7.77;0.80;;;;;;;14.85;100.00;100298.41;2619877;47;20160;-66
2022/03/30 23:21:35;;;;;;;5.68;2.47;;;;;;;14.90;100.00;100298.03;2619401;54;20146;-65
2022/03/30 23:24:06;;;;;;;1.87;1.23;;;;;;;14.85;100.00;100295.78;2620499;31;20671;-64
2022/03/30 23:26:37;;;;;;;1.42;1.38;;;;;;;14.80;100.00;100302.38;2619731;54;20175;-64
2022/03/30 23:29:08;;;;;;;2.10;1.33;;;;;;;14.80;100.00;100305.81;2619362;54;20150;-64
2022/03/30 23:31:38;;;;;;;1.92;1.83;;;;;;;14.75;100.00;100294.09;2619564;54;20153;-64
2022/03/30 23:34:11;;;;;;;2.63;1.93;;;;;;;14.74;100.00;100302.88;2619388;39;20573;-64
2022/03/30 23:36:41;;;;;;;9.33;4.63;;;;;;;14.73;100.00;100304.66;2619570;48;20178;-64
2022/03/30 23:39:12;;;;;;;7.23;6.03;;;;;;;14.68;100.00;100306.00;2618536;54;20152;-64
2022/03/30 23:41:42;;;;;;;1.77;1.67;;;;;;;14.76;100.00;100303.59;2618846;54;20153;-65
2022/03/30 23:44:13;;;;;;;7.33;3.80;;;;;;;14.70;100.00;100296.25;2618810;54;20153;-64
2022/03/30 23:46:43;;;;;;;2.15;1.73;;;;;;;14.76;100.00;100295.75;2618819;54;20148;-64
2022/03/30 23:49:16;;;;;;;1.55;1.45;;;;;;;14.71;100.00;100285.69;2618346;54;20146;-64
2022/03/30 23:51:47;;;;;;;0.97;0.90;;;;;;;14.74;100.00;100287.22;2619029;54;20153;-64
2022/03/30 23:54:18;;;;;;;3.00;2.37;;;;;;;14.67;100.00;100278.25;2619142;54;20153;-65
2022/03/30 23:56:48;;;;;;;4.40;3.17;;;;;;;14.67;100.00;100276.47;2618994;47;20146;-64
2022/03/30 23:59:18;;;;;;;2.92;2.55;;;;;;;14.69;100.00;100278.94;2619423;54;20199;-64
